Time;durP1;ratioP1;P1;durP2;ratioP2;P2;SDS_P1;SDS_P2;PMS_P1;PMS_P2;Temp;Humidity;BMP_temperature;BMP_pressure;BME280_temperature;BME280_humidity;BME280_pressure;Samples;Min_cycle;Max_cycle;Signal;HPM_P1;HPM_P2
2022/11/17 00:01:18;;;;;;;2.60;1.00;;;11.20;99.90;;;;;;5074575;28;20103;-74
2022/11/17 00:03:44;;;;;;;4.57;1.50;;;11.20;99.90;;;;;;5074721;28;20120;-74
2022/11/17 00:06:10;;;;;;;4.18;1.15;;;11.30;99.90;;;;;;5073244;28;20024;-74
2022/11/17 00:08:36;;;;;;;3.33;1.00;;;11.30;99.90;;;;;;5074315;28;20046;-74
2022/11/17 00:11:02;;;;;;;2.13;0.88;;;11.30;99.90;;;;;;5074635;28;20074;-74
2022/11/17 00:16:18;;;;;;;3.53;0.70;;;11.40;99.90;;;;;;5074368;28;20025;-74
2022/11/17 00:21:29;;;;;;;2.20;0.55;;;11.60;99.90;;;;;;5074341;28;20103;-74
2022/11/17 00:23:55;;;;;;;4.43;0.52;;;11.60;99.90;;;;;;5073145;28;20037;-74
2022/11/17 00:26:27;;;;;;;2.88;0.70;;;11.80;99.90;;;;;;5074882;28;20017;-74
2022/11/17 00:28:55;;;;;;;1.30;0.90;;;11.80;99.90;;;;;;5074232;28;20026;-74
2022/11/17 00:34:10;;;;;;;1.20;0.75;;;11.80;99.90;;;;;;5074340;28;20563;-74
2022/11/17 00:36:43;;;;;;;3.33;0.90;;;11.90;99.90;;;;;;5072391;28;20038;-74
2022/11/17 00:39:11;;;;;;;4.35;0.98;;;12.00;99.90;;;;;;5072398;28;20497;-74
2022/11/17 00:41:37;;;;;;;1.98;0.82;;;12.00;99.90;;;;;;5073872;28;20025;-75
2022/11/17 00:44:04;;;;;;;4.35;1.13;;;12.00;99.90;;;;;;5064949;28;20071;-76
2022/11/17 00:46:31;;;;;;;5.50;0.90;;;12.10;99.90;;;;;;5068925;28;20068;-74
2022/11/17 00:48:57;;;;;;;4.40;1.30;;;12.00;99.90;;;;;;5073652;28;20484;-74
2022/11/17 00:51:24;;;;;;;6.70;0.90;;;12.10;99.90;;;;;;5072101;28;20119;-75
2022/11/17 00:53:49;;;;;;;5.13;1.65;;;12.10;99.90;;;;;;5072455;28;20040;-74
2022/11/17 00:56:15;;;;;;;5.68;1.40;;;12.20;99.90;;;;;;5072597;28;20024;-74
2022/11/17 00:58:42;;;;;;;9.25;1.08;;;12.20;99.90;;;;;;5073427;28;20024;-74
2022/11/17 01:01:07;;;;;;;4.88;1.05;;;12.30;99.90;;;;;;5073547;28;20025;-76
2022/11/17 01:03:34;;;;;;;4.95;1.42;;;12.30;99.90;;;;;;5073299;28;20029;-76
2022/11/17 01:06:09;;;;;;;9.10;1.30;;;12.30;99.90;;;;;;5071822;28;20035;-76
2022/11/17 01:08:35;;;;;;;10.30;1.63;;;12.30;99.90;;;;;;5073333;28;20036;-77
2022/11/17 01:11:05;;;;;;;5.95;1.88;;;12.30;99.90;;;;;;5073241;28;20131;-76
2022/11/17 01:13:30;;;;;;;7.10;1.08;;;12.30;99.90;;;;;;5073321;28;20030;-77
2022/11/17 01:16:01;;;;;;;8.73;1.20;;;12.30;99.90;;;;;;5071862;28;20107;-76
2022/11/17 01:18:27;;;;;;;6.32;0.88;;;12.20;99.90;;;;;;5072075;28;20039;-76
2022/11/17 01:20:53;;;;;;;14.45;1.40;;;12.10;99.90;;;;;;5072533;28;20021;-76
2022/11/17 01:23:19;;;;;;;5.72;1.50;;;12.10;99.90;;;;;;5068602;28;20057;-76
2022/11/17 01:25:44;;;;;;;6.55;1.80;;;12.00;99.90;;;;;;5069363;28;20028;-76
2022/11/17 01:28:10;;;;;;;7.28;1.80;;;12.00;99.90;;;;;;5073066;28;20028;-76
2022/11/17 01:30:36;;;;;;;5.60;1.60;;;12.00;99.90;;;;;;5071813;28;20032;-76
2022/11/17 01:33:01;;;;;;;9.10;1.75;;;11.90;99.90;;;;;;5072705;28;20025;-76
2022/11/17 01:35:27;;;;;;;15.10;2.45;;;11.90;99.90;;;;;;5072684;28;20465;-76
2022/11/17 01:37:53;;;;;;;11.27;1.60;;;11.90;99.90;;;;;;5071555;28;20036;-76
2022/11/17 01:40:18;;;;;;;9.23;2.45;;;12.00;99.90;;;;;;5072959;28;20637;-76
2022/11/17 01:42:44;;;;;;;8.23;1.80;;;11.90;99.90;;;;;;5072895;28;20074;-76
2022/11/17 01:45:22;;;;;;;16.52;2.33;;;11.90;99.90;;;;;;5072746;28;20040;-76
2022/11/17 01:47:56;;;;;;;9.10;1.75;;;11.80;99.90;;;;;;5071661;28;20024;-76
2022/11/17 01:50:31;;;;;;;6.78;2.08;;;11.80;99.90;;;;;;5071858;28;20093;-76
2022/11/17 01:52:59;;;;;;;8.15;2.05;;;11.90;99.90;;;;;;5071363;28;20029;-76
2022/11/17 01:55:36;;;;;;;9.40;2.00;;;11.80;99.90;;;;;;5069356;28;20362;-76
2022/11/17 01:58:11;;;;;;;10.85;2.13;;;11.80;99.90;;;;;;5068505;28;20063;-76
2022/11/17 02:00:36;;;;;;;10.32;1.70;;;11.80;99.90;;;;;;5072420;28;20103;-76
2022/11/17 02:03:05;;;;;;;15.52;2.30;;;11.80;99.90;;;;;;5071323;28;20429;-76
2022/11/17 02:05:44;;;;;;;10.52;2.72;;;11.70;99.90;;;;;;5070881;28;20029;-76
2022/11/17 02:08:11;;;;;;;18.42;2.45;;;11.80;99.90;;;;;;5072476;28;20043;-76
2022/11/17 02:10:37;;;;;;;10.57;2.08;;;11.80;99.90;;;;;;5072627;28;20358;-76
2022/11/17 02:13:04;;;;;;;17.60;3.20;;;11.90;99.90;;;;;;5070967;28;20020;-76
2022/11/17 02:15:30;;;;;;;16.15;2.42;;;11.90;99.90;;;;;;5072539;28;20044;-76
2022/11/17 02:17:57;;;;;;;10.40;2.40;;;11.90;99.90;;;;;;5070903;28;20056;-76
2022/11/17 02:20:49;;;;;;;14.30;2.00;;;12.00;99.90;;;;;;5072667;28;20027;-76
2022/11/17 02:23:27;;;;;;;13.85;2.40;;;12.00;99.90;;;;;;5070980;28;20473;-75
2022/11/17 02:26:19;;;;;;;13.50;3.55;;;12.00;99.90;;;;;;5072497;28;20027;-75
2022/11/17 02:28:55;;;;;;;10.27;2.08;;;12.10;99.90;;;;;;5071751;28;20028;-76
2022/11/17 02:31:44;;;;;;;15.00;2.78;;;12.10;99.90;;;;;;5072387;28;20103;-76
2022/11/17 02:34:44;;;;;;;16.95;2.95;;;12.10;99.90;;;;;;5071041;28;20492;-76
2022/11/17 02:37:54;;;;;;;7.35;1.85;;;12.10;99.90;;;;;;5070900;28;20029;-76
2022/11/17 02:40:42;;;;;;;12.38;2.53;;;12.20;99.90;;;;;;5071955;28;20086;-75
2022/11/17 02:46:03;;;;;;;;;;;12.10;99.90;;;;;;5072867;28;20043;-76
2022/11/17 02:48:33;;;;;;;15.38;3.53;;;12.00;99.90;;;;;;5071009;28;20301;-76
2022/11/17 02:51:00;;;;;;;14.73;3.08;;;12.00;99.90;;;;;;5071295;28;20032;-76
2022/11/17 02:53:28;;;;;;;12.27;2.22;;;12.00;99.90;;;;;;5072292;28;20446;-76
2022/11/17 02:55:57;;;;;;;17.90;2.97;;;11.90;99.90;;;;;;5073446;28;20032;-76
2022/11/17 02:58:23;;;;;;;18.27;3.20;;;11.80;99.90;;;;;;5073320;28;20029;-77
2022/11/17 03:01:00;;;;;;;13.65;2.58;;;11.70;99.90;;;;;;5072345;28;20024;-76
2022/11/17 03:03:36;;;;;;;11.98;3.08;;;11.70;99.90;;;;;;5073582;28;20111;-76
2022/11/17 03:06:17;;;;;;;20.70;3.65;;;11.70;99.90;;;;;;5075693;28;20365;-76
2022/11/17 03:09:09;;;;;;;12.45;1.92;;;11.70;99.90;;;;;;5075599;28;20029;-76
2022/11/17 03:11:50;;;;;;;14.68;2.80;;;11.70;99.90;;;;;;5075616;28;20564;-76
2022/11/17 03:14:52;;;;;;;12.13;3.95;;;11.60;99.90;;;;;;5075397;28;20045;-76
2022/11/17 03:17:27;;;;;;;10.48;2.17;;;11.60;99.90;;;;;;5075255;28;20032;-76
2022/11/17 03:20:21;;;;;;;12.45;3.08;;;11.60;99.90;;;;;;5075417;28;20052;-76
2022/11/17 03:22:54;;;;;;;14.98;2.10;;;11.60;99.90;;;;;;5075419;28;20033;-77
2022/11/17 03:25:22;;;;;;;13.10;2.30;;;11.60;99.90;;;;;;5075193;28;20028;-76
2022/11/17 03:27:52;;;;;;;9.85;2.38;;;11.60;99.90;;;;;;5075413;28;20021;-76
2022/11/17 03:30:21;;;;;;;16.27;2.47;;;11.60;99.90;;;;;;5074938;28;20028;-76
2022/11/17 03:32:51;;;;;;;12.98;2.20;;;11.60;99.90;;;;;;5075387;28;20048;-76
2022/11/17 03:35:21;;;;;;;12.82;2.20;;;11.50;99.90;;;;;;5074879;28;20093;-76
2022/11/17 03:37:52;;;;;;;13.90;2.95;;;11.50;99.90;;;;;;5074130;28;20082;-76
2022/11/17 03:40:22;;;;;;;10.67;2.20;;;11.50;99.90;;;;;;5061632;28;20525;-76
2022/11/17 03:42:52;;;;;;;9.00;1.88;;;11.50;99.90;;;;;;5075261;28;20028;-76
2022/11/17 03:45:25;;;;;;;7.10;1.63;;;11.60;99.90;;;;;;5074642;28;20032;-76
2022/11/17 03:48:11;;;;;;;11.30;1.98;;;11.60;99.90;;;;;;5075047;28;20127;-76
2022/11/17 03:50:48;;;;;;;10.73;2.25;;;11.60;99.90;;;;;;5073585;28;20104;-76
2022/11/17 03:53:14;;;;;;;5.88;1.55;;;11.60;99.90;;;;;;5075176;28;20492;-75
2022/11/17 03:55:50;;;;;;;11.60;2.25;;;11.60;99.90;;;;;;5074558;28;20046;-76
2022/11/17 03:58:20;;;;;;;9.38;2.08;;;11.70;99.90;;;;;;5074916;28;20020;-76
2022/11/17 04:00:50;;;;;;;13.15;1.70;;;11.60;99.90;;;;;;5074085;28;20155;-76
2022/11/17 04:03:16;;;;;;;7.25;2.13;;;11.70;99.90;;;;;;5074979;28;20028;-77
2022/11/17 04:05:42;;;;;;;9.98;1.88;;;11.60;99.90;;;;;;5073089;28;20070;-76
2022/11/17 04:08:08;;;;;;;8.20;1.90;;;11.70;99.90;;;;;;5073538;28;20082;-76
2022/11/17 04:15:55;;;;;;;10.77;1.55;;;11.80;99.90;;;;;;5074662;28;20046;-77
2022/11/17 04:16:04;;;;;;;9.13;2.35;;;11.80;99.90;;;;;;5073821;28;20040;-76
2022/11/17 04:18:29;;;;;;;8.38;1.80;;;11.90;99.90;;;;;;5074480;28;20029;-76
2022/11/17 04:20:56;;;;;;;10.18;2.70;;;11.90;99.90;;;;;;5074390;28;20067;-76
2022/11/17 04:23:23;;;;;;;7.85;1.80;;;11.90;99.90;;;;;;5074317;28;20111;-76
2022/11/17 04:28:44;;;;;;;15.73;2.67;;;11.90;99.90;;;;;;5073786;28;20028;-76
2022/11/17 04:31:29;;;;;;;11.90;2.13;;;11.90;99.90;;;;;;5074080;28;20039;-77
2022/11/17 04:34:00;;;;;;;12.95;2.65;;;11.90;99.90;;;;;;5073017;28;20029;-76
2022/11/17 04:36:33;;;;;;;12.13;2.73;;;11.90;99.90;;;;;;5073647;28;20455;-76
2022/11/17 04:38:59;;;;;;;10.38;1.77;;;11.80;99.90;;;;;;5074136;28;20078;-76
2022/11/17 04:44:13;;;;;;;11.18;2.00;;;12.00;99.90;;;;;;5073670;28;20035;-76
2022/11/17 04:46:40;;;;;;;12.85;2.10;;;12.00;99.90;;;;;;5073776;28;20082;-76
2022/11/17 04:49:07;;;;;;;7.78;1.92;;;11.90;99.90;;;;;;5073929;28;20043;-77
2022/11/17 04:51:34;;;;;;;8.95;1.65;;;11.90;99.90;;;;;;5073606;28;20040;-76
2022/11/17 04:54:00;;;;;;;13.48;2.00;;;11.90;99.90;;;;;;5073747;28;20024;-76
2022/11/17 04:56:28;;;;;;;11.98;2.45;;;11.90;99.90;;;;;;5074003;28;20040;-77
2022/11/17 04:58:54;;;;;;;10.05;2.25;;;11.90;99.90;;;;;;5073497;28;20020;-77
2022/11/17 05:01:21;;;;;;;12.18;2.00;;;11.80;99.90;;;;;;5073375;28;20032;-76
2022/11/17 05:03:48;;;;;;;10.18;1.50;;;11.70;99.90;;;;;;5072271;28;20024;-77
2022/11/17 05:06:25;;;;;;;7.97;2.05;;;11.70;99.90;;;;;;5073385;28;20039;-76
2022/11/17 05:08:54;;;;;;;6.38;1.45;;;11.60;99.90;;;;;;5074651;28;20021;-77
2022/11/17 05:14:11;;;;;;;5.38;1.30;;;11.50;99.90;;;;;;5072834;28;20041;-76
2022/11/17 05:19:24;;;;;;;6.35;1.92;;;11.40;99.90;;;;;;5073041;28;20098;-76
2022/11/17 05:21:50;;;;;;;14.70;1.40;;;11.30;99.90;;;;;;5073176;28;20029;-76
2022/11/17 05:24:16;;;;;;;17.40;1.88;;;11.30;99.90;;;;;;5071990;28;20032;-77
2022/11/17 05:26:44;;;;;;;7.68;1.23;;;11.30;99.90;;;;;;5072558;28;20038;-76
2022/11/17 05:29:11;;;;;;;5.18;1.08;;;11.20;99.90;;;;;;5073353;28;20038;-76
2022/11/17 05:31:37;;;;;;;13.40;1.50;;;11.10;99.90;;;;;;5072748;28;20422;-76
2022/11/17 05:34:06;;;;;;;7.55;1.02;;;11.10;99.90;;;;;;5073040;28;20131;-77
2022/11/17 05:36:32;;;;;;;3.92;1.15;;;11.10;99.90;;;;;;5072674;28;20068;-77
2022/11/17 05:38:58;;;;;;;10.48;1.38;;;11.00;99.90;;;;;;5072800;28;20059;-77
2022/11/17 05:41:25;;;;;;;4.40;1.08;;;11.00;99.90;;;;;;5072498;28;20032;-76
2022/11/17 05:43:51;;;;;;;3.47;0.85;;;11.00;99.90;;;;;;5071674;28;20051;-76
2022/11/17 05:46:18;;;;;;;5.40;1.27;;;10.90;99.90;;;;;;5072556;28;20032;-76
2022/11/17 05:48:45;;;;;;;4.75;0.85;;;10.90;99.90;;;;;;5072890;28;20025;-77
2022/11/17 05:51:11;;;;;;;8.80;1.15;;;10.80;99.90;;;;;;5072926;28;20586;-76
2022/11/17 05:53:37;;;;;;;4.32;0.85;;;10.80;99.90;;;;;;5071013;28;20111;-76
2022/11/17 05:56:13;;;;;;;1.92;0.80;;;10.70;99.90;;;;;;5072081;28;20032;-76
2022/11/17 05:58:42;;;;;;;4.68;0.68;;;10.70;99.90;;;;;;5069154;28;20032;-76
2022/11/17 06:01:10;;;;;;;3.60;0.85;;;10.70;99.90;;;;;;5072820;28;20099;-76
2022/11/17 06:03:42;;;;;;;5.30;0.82;;;10.60;99.90;;;;;;5071112;28;20048;-76
2022/11/17 06:06:09;;;;;;;14.70;1.80;;;10.60;99.90;;;;;;5072594;28;20016;-76
2022/11/17 06:08:35;;;;;;;2.20;0.70;;;10.50;99.90;;;;;;5072526;28;20021;-75
2022/11/17 06:11:01;;;;;;;3.92;1.38;;;10.50;99.90;;;;;;5072313;28;20107;-76
2022/11/17 06:13:27;;;;;;;5.10;0.95;;;10.50;99.90;;;;;;5071535;28;20532;-76
2022/11/17 06:16:00;;;;;;;2.60;0.63;;;10.40;99.90;;;;;;5070813;28;20072;-77
2022/11/17 06:18:35;;;;;;;5.85;1.15;;;10.40;99.90;;;;;;5072456;28;20025;-76
2022/11/17 06:21:01;;;;;;;7.07;1.65;;;10.40;99.90;;;;;;5072461;28;20099;-77
2022/11/17 06:23:30;;;;;;;4.63;1.90;;;10.40;99.90;;;;;;5071092;28;20029;-77
2022/11/17 06:25:59;;;;;;;6.13;1.42;;;10.40;99.90;;;;;;5072207;28;20061;-76
2022/11/17 06:28:27;;;;;;;7.47;1.38;;;10.40;99.90;;;;;;5066848;28;20492;-76
2022/11/17 06:30:54;;;;;;;8.85;1.50;;;10.40;99.90;;;;;;5064282;28;20039;-76
2022/11/17 06:33:20;;;;;;;6.20;1.20;;;10.40;99.90;;;;;;5072095;28;20025;-77
2022/11/17 06:35:47;;;;;;;6.82;1.27;;;10.50;99.90;;;;;;5072206;28;20110;-77
2022/11/17 06:38:13;;;;;;;6.60;1.45;;;10.50;99.90;;;;;;5075270;28;20480;-77
2022/11/17 06:40:39;;;;;;;3.83;1.20;;;10.50;99.90;;;;;;5076092;28;20027;-76
2022/11/17 06:43:08;;;;;;;6.45;1.30;;;10.50;99.90;;;;;;5076128;28;20119;-76
2022/11/17 06:45:37;;;;;;;5.57;1.50;;;10.50;99.90;;;;;;5075930;28;20021;-76
2022/11/17 06:48:04;;;;;;;8.13;1.20;;;10.60;99.90;;;;;;5074704;28;20056;-76
2022/11/17 06:50:29;;;;;;;7.65;1.20;;;10.60;99.90;;;;;;5075796;28;20056;-76
2022/11/17 06:52:57;;;;;;;12.63;1.25;;;10.70;99.90;;;;;;5075986;28;20534;-76
2022/11/17 06:55:23;;;;;;;12.43;1.88;;;10.70;99.90;;;;;;5074295;28;20111;-76
2022/11/17 06:57:49;;;;;;;8.70;1.48;;;10.70;99.90;;;;;;5075809;28;20033;-76
2022/11/17 07:00:15;;;;;;;7.70;1.05;;;10.70;99.90;;;;;;5075645;28;20020;-76
2022/11/17 07:02:41;;;;;;;7.72;1.30;;;10.80;99.90;;;;;;5074319;28;20032;-76
2022/11/17 07:05:07;;;;;;;9.25;1.60;;;10.70;99.90;;;;;;5057715;28;20167;-76
2022/11/17 07:07:33;;;;;;;5.78;1.55;;;10.80;99.90;;;;;;5075682;28;20025;-76
2022/11/17 07:09:59;;;;;;;12.07;1.70;;;10.80;99.90;;;;;;5075448;28;20481;-76
2022/11/17 07:12:25;;;;;;;5.72;0.98;;;10.80;99.90;;;;;;5075327;28;20100;-76
2022/11/17 07:14:50;;;;;;;7.43;1.40;;;10.70;99.90;;;;;;5075354;28;20044;-76
2022/11/17 07:17:16;;;;;;;8.82;1.42;;;10.70;99.90;;;;;;5074524;28;20021;-76
2022/11/17 07:19:42;;;;;;;15.18;2.05;;;10.70;99.90;;;;;;5075012;28;20033;-76
2022/11/17 07:22:08;;;;;;;7.20;1.35;;;10.70;99.90;;;;;;5073871;28;20059;-77
2022/11/17 07:24:33;;;;;;;6.95;1.13;;;10.70;99.90;;;;;;5073592;28;20028;-77
2022/11/17 07:26:59;;;;;;;4.45;1.15;;;10.60;99.90;;;;;;5075538;28;20082;-76
2022/11/17 07:29:25;;;;;;;8.52;1.60;;;10.60;99.90;;;;;;5075193;28;20025;-76
2022/11/17 07:31:51;;;;;;;9.27;1.33;;;10.60;99.90;;;;;;5073906;28;20035;-76
2022/11/17 07:34:16;;;;;;;9.57;1.70;;;10.60;99.90;;;;;;5074821;28;20082;-76
2022/11/17 07:36:42;;;;;;;11.52;1.52;;;10.60;99.90;;;;;;5073739;28;20036;-76
2022/11/17 07:39:08;;;;;;;5.90;1.60;;;10.50;99.90;;;;;;5073553;28;20086;-76
2022/11/17 07:41:34;;;;;;;11.93;1.98;;;10.40;99.90;;;;;;5074746;28;20120;-76
2022/11/17 07:44:00;;;;;;;4.38;1.42;;;10.50;99.90;;;;;;5075272;28;20504;-77
2022/11/17 07:46:26;;;;;;;6.45;1.60;;;10.40;99.90;;;;;;5074745;28;20020;-77
2022/11/17 07:48:55;;;;;;;9.18;1.00;;;10.40;99.90;;;;;;5061136;28;20033;-76
2022/11/17 07:51:21;;;;;;;9.07;1.40;;;10.40;99.90;;;;;;5059965;28;20496;-77
2022/11/17 07:53:46;;;;;;;11.32;1.58;;;10.40;99.90;;;;;;5057860;28;20032;-76
2022/11/17 07:56:12;;;;;;;4.55;1.40;;;10.40;99.90;;;;;;5061115;28;20033;-77
2022/11/17 07:58:39;;;;;;;7.47;1.70;;;10.40;99.90;;;;;;5055525;28;20021;-77
2022/11/17 08:01:13;;;;;;;18.05;1.80;;;10.40;99.90;;;;;;5058979;28;20116;-76
2022/11/17 08:03:39;;;;;;;4.03;1.40;;;10.40;99.90;;;;;;5056970;28;20389;-77
2022/11/17 08:06:06;;;;;;;4.03;1.40;;;10.40;99.90;;;;;;5053351;28;20024;-77
2022/11/17 08:08:32;;;;;;;8.15;1.23;;;10.40;99.90;;;;;;5073977;28;20032;-77
2022/11/17 08:11:07;;;;;;;6.43;1.10;;;10.40;99.90;;;;;;5073541;28;20024;-77
2022/11/17 08:13:34;;;;;;;5.05;1.73;;;10.40;99.90;;;;;;5068378;28;20039;-77
2022/11/17 08:16:00;;;;;;;4.85;1.80;;;10.50;99.90;;;;;;5073335;28;20127;-77
2022/11/17 08:18:27;;;;;;;4.57;1.20;;;10.50;99.90;;;;;;5073846;28;20082;-77
2022/11/17 08:21:07;;;;;;;4.93;1.90;;;10.40;99.90;;;;;;5066777;28;20554;-77
2022/11/17 08:23:34;;;;;;;6.95;1.33;;;10.50;99.90;;;;;;5068895;28;20063;-77
2022/11/17 08:26:01;;;;;;;6.40;1.83;;;10.40;99.90;;;;;;5072087;28;20464;-77
2022/11/17 08:28:27;;;;;;;6.35;1.65;;;10.50;99.90;;;;;;5073005;28;20033;-77
2022/11/17 08:30:53;;;;;;;7.55;1.63;;;10.50;99.90;;;;;;5071121;28;20059;-77
2022/11/17 08:33:18;;;;;;;7.13;1.58;;;10.60;99.90;;;;;;5073919;28;20021;-77
2022/11/17 08:35:44;;;;;;;11.15;1.35;;;10.60;99.90;;;;;;5073364;28;20033;-77
2022/11/17 08:38:14;;;;;;;7.35;1.30;;;10.60;99.90;;;;;;5072671;28;20357;-77
2022/11/17 08:40:40;;;;;;;7.93;1.60;;;10.60;99.90;;;;;;5073437;28;20047;-77
2022/11/17 08:43:07;;;;;;;11.82;2.65;;;10.60;99.90;;;;;;5073967;28;20033;-77
2022/11/17 08:45:33;;;;;;;12.65;1.50;;;10.60;99.90;;;;;;5073509;28;20032;-77
2022/11/17 08:47:59;;;;;;;10.77;1.65;;;10.70;99.90;;;;;;5073909;28;20508;-76
2022/11/17 08:50:25;;;;;;;7.60;1.55;;;10.80;99.90;;;;;;5073356;28;20020;-77
2022/11/17 08:52:51;;;;;;;5.68;1.30;;;10.80;99.90;;;;;;5065956;28;20029;-77
2022/11/17 08:55:17;;;;;;;5.47;1.30;;;10.80;99.90;;;;;;5061459;28;20033;-77
2022/11/17 08:57:43;;;;;;;7.15;1.35;;;10.80;99.90;;;;;;5061127;28;20032;-76
2022/11/17 09:00:10;;;;;;;10.43;1.50;;;10.80;99.90;;;;;;5056902;28;20108;-77
2022/11/17 09:02:38;;;;;;;12.45;1.55;;;10.80;99.90;;;;;;5054716;28;20025;-77
2022/11/17 09:05:05;;;;;;;6.45;1.60;;;10.90;99.90;;;;;;5063831;28;20073;-76
2022/11/17 09:07:34;;;;;;;11.98;2.00;;;11.00;99.90;;;;;;5072423;28;20024;-77
2022/11/17 09:10:01;;;;;;;5.68;1.38;;;11.00;99.90;;;;;;5053368;28;20036;-76
2022/11/17 09:12:26;;;;;;;6.68;1.38;;;11.00;99.90;;;;;;5072571;28;20016;-76
2022/11/17 09:14:52;;;;;;;13.18;3.20;;;10.90;99.90;;;;;;5054893;28;20044;-76
2022/11/17 09:17:18;;;;;;;7.88;3.35;;;10.80;99.90;;;;;;5072183;28;20021;-76
2022/11/17 09:19:43;;;;;;;9.15;2.33;;;10.80;99.90;;;;;;5053973;28;20043;-76
2022/11/17 09:22:09;;;;;;;5.72;1.40;;;10.90;99.90;;;;;;5071349;28;20025;-76
2022/11/17 09:24:35;;;;;;;7.15;1.83;;;10.90;99.90;;;;;;5070780;28;20115;-76
2022/11/17 09:27:02;;;;;;;7.05;1.58;;;10.90;99.90;;;;;;5069816;28;20025;-76
2022/11/17 09:29:29;;;;;;;13.57;1.80;;;11.00;99.90;;;;;;5071150;28;20697;-76
2022/11/17 09:31:54;;;;;;;4.70;0.95;;;10.90;99.90;;;;;;5073077;28;20054;-76
2022/11/17 09:34:20;;;;;;;8.57;1.90;;;10.80;99.90;;;;;;5071550;28;20551;-76
2022/11/17 09:36:49;;;;;;;7.50;1.20;;;10.90;99.90;;;;;;5071128;28;20484;-76
2022/11/17 09:39:15;;;;;;;7.18;1.00;;;10.90;99.90;;;;;;5072858;28;20473;-76
2022/11/17 09:41:59;;;;;;;6.10;1.60;;;11.00;99.90;;;;;;5072790;28;20039;-76
2022/11/17 09:44:24;;;;;;;7.07;1.20;;;11.00;99.90;;;;;;5058513;28;20110;-76
2022/11/17 09:46:56;;;;;;;8.35;1.63;;;11.00;99.90;;;;;;5055412;28;20906;-76
2022/11/17 09:49:47;;;;;;;8.38;1.02;;;11.00;99.90;;;;;;5021658;28;20435;-77
2022/11/17 09:52:29;;;;;;;7.75;1.65;;;11.10;99.90;;;;;;5057779;28;20032;-76
2022/11/17 09:54:57;;;;;;;2.00;1.13;;;11.10;99.90;;;;;;5052111;28;20534;-77
2022/11/17 09:57:29;;;;;;;8.73;1.30;;;11.00;99.90;;;;;;5050607;28;20017;-76
2022/11/17 10:00:19;;;;;;;8.30;1.13;;;11.10;99.90;;;;;;5045212;28;20036;-76
2022/11/17 10:02:46;;;;;;;4.57;1.17;;;11.10;99.90;;;;;;5058725;28;20033;-76
2022/11/17 10:05:15;;;;;;;4.82;1.38;;;11.00;99.90;;;;;;5066906;28;20028;-75
2022/11/17 10:07:52;;;;;;;6.18;1.83;;;11.10;99.90;;;;;;5071661;28;21415;-75
2022/11/17 10:10:49;;;;;;;6.07;1.35;;;11.10;99.90;;;;;;5071717;28;20037;-75
2022/11/17 10:13:34;;;;;;;5.05;1.80;;;11.00;99.90;;;;;;5061410;28;20501;-75
2022/11/17 10:16:04;;;;;;;4.05;1.45;;;11.10;99.90;;;;;;5070184;28;20048;-75
2022/11/17 10:18:33;;;;;;;4.65;1.55;;;11.00;99.90;;;;;;5063272;28;20032;-75
2022/11/17 10:20:59;;;;;;;7.07;2.03;;;11.10;99.90;;;;;;5042074;28;20433;-75
2022/11/17 10:23:32;;;;;;;7.18;1.48;;;11.10;99.90;;;;;;5054092;28;20060;-74
2022/11/17 10:25:58;;;;;;;5.50;1.75;;;11.10;99.90;;;;;;5051469;28;20123;-74
2022/11/17 10:28:28;;;;;;;7.60;1.35;;;11.20;99.90;;;;;;5053382;28;20124;-75
2022/11/17 10:30:59;;;;;;;5.70;1.80;;;11.20;99.90;;;;;;5034271;28;20036;-75
2022/11/17 10:33:51;;;;;;;6.68;2.00;;;11.30;99.90;;;;;;5052702;28;20093;-75
2022/11/17 10:36:28;;;;;;;9.48;2.38;;;11.30;99.90;;;;;;5060442;28;20052;-75
2022/11/17 10:38:56;;;;;;;10.07;1.30;;;11.30;99.90;;;;;;5056131;28;20033;-75
2022/11/17 10:41:41;;;;;;;6.60;1.30;;;11.30;99.90;;;;;;5056286;28;20035;-75
2022/11/17 10:44:26;;;;;;;7.63;2.20;;;11.40;99.90;;;;;;5051078;28;20163;-75
2022/11/17 10:47:00;;;;;;;10.15;1.83;;;11.30;99.90;;;;;;5060954;28;20025;-75
2022/11/17 10:49:29;;;;;;;5.95;1.73;;;11.30;99.90;;;;;;5055419;28;20033;-74
2022/11/17 10:52:04;;;;;;;10.77;4.45;;;11.40;99.90;;;;;;5051230;28;20021;-75
2022/11/17 10:54:30;;;;;;;10.52;3.20;;;11.40;99.90;;;;;;5048368;28;20079;-75
2022/11/17 10:56:58;;;;;;;7.40;1.10;;;11.40;99.90;;;;;;5032307;28;20377;-74
2022/11/17 10:59:30;;;;;;;5.43;1.50;;;11.40;99.90;;;;;;5049931;28;20079;-74
2022/11/17 11:01:55;;;;;;;3.75;1.30;;;11.40;99.90;;;;;;5060029;28;20032;-75
2022/11/17 11:04:41;;;;;;;4.43;1.08;;;11.40;99.90;;;;;;5055251;28;20477;-76
2022/11/17 11:07:20;;;;;;;9.25;1.15;;;11.40;99.90;;;;;;5071333;28;20496;-74
2022/11/17 11:09:59;;;;;;;7.82;1.42;;;11.40;99.90;;;;;;5043275;28;20544;-74
2022/11/17 11:12:42;;;;;;;7.53;1.10;;;11.40;99.90;;;;;;5071434;28;20037;-75
2022/11/17 11:15:24;;;;;;;4.90;1.17;;;11.50;99.90;;;;;;5063362;28;20055;-75
2022/11/17 11:17:50;;;;;;;;;;;11.40;99.90;;;;;;5064181;28;20116;-75
2022/11/17 11:20:19;;;;;;;6.68;1.70;;;11.40;99.90;;;;;;5047203;28;19996;-78
2022/11/17 11:22:55;;;;;;;5.97;1.33;;;11.50;99.90;;;;;;5054462;28;20036;-75
2022/11/17 11:25:39;;;;;;;6.30;1.38;;;11.50;99.90;;;;;;5049934;28;20043;-75
2022/11/17 11:28:35;;;;;;;5.10;1.20;;;11.50;99.90;;;;;;5057139;28;20064;-75
2022/11/17 11:31:27;;;;;;;8.85;1.17;;;11.50;99.90;;;;;;5056429;28;20037;-75
2022/11/17 11:34:15;;;;;;;5.28;1.20;;;11.60;99.90;;;;;;5060262;28;20056;-75
2022/11/17 11:36:58;;;;;;;5.55;1.13;;;11.60;99.90;;;;;;5065410;28;20044;-75
2022/11/17 11:39:52;;;;;;;4.05;1.38;;;11.60;99.90;;;;;;5062521;28;20119;-75
2022/11/17 11:42:33;;;;;;;5.93;1.13;;;11.60;99.90;;;;;;5055768;28;20049;-75
2022/11/17 11:45:21;;;;;;;5.05;1.73;;;11.60;99.90;;;;;;5053669;28;20357;-75
2022/11/17 11:48:06;;;;;;;5.45;1.25;;;11.60;99.90;;;;;;5059573;28;20033;-75
2022/11/17 11:50:57;;;;;;;4.07;0.90;;;11.50;99.90;;;;;;5059696;28;20434;-75
2022/11/17 11:53:31;;;;;;;10.88;1.13;;;11.60;99.90;;;;;;5054349;28;20091;-75
2022/11/17 11:56:08;;;;;;;7.13;1.50;;;11.60;99.90;;;;;;5041990;28;20477;-73
2022/11/17 11:58:45;;;;;;;5.60;1.50;;;11.60;99.90;;;;;;5054196;28;20070;-75
2022/11/17 12:01:12;;;;;;;6.60;2.00;;;11.80;99.90;;;;;;5042430;28;20025;-75
2022/11/17 12:03:55;;;;;;;4.13;1.13;;;11.90;99.90;;;;;;5054560;28;20436;-75
2022/11/17 12:06:59;;;;;;;6.10;1.40;;;12.00;99.90;;;;;;5022571;28;20020;-75
2022/11/17 12:10:03;;;;;;;5.63;1.13;;;12.00;99.90;;;;;;5071361;28;20017;-75
2022/11/17 12:12:37;;;;;;;5.50;1.10;;;12.00;99.90;;;;;;5074240;28;20086;-75
2022/11/17 12:15:19;;;;;;;2.75;0.93;;;12.10;99.90;;;;;;5072865;28;20043;-74
2022/11/17 12:18:23;;;;;;;3.03;0.73;;;12.00;99.90;;;;;;5074326;28;20021;-75
2022/11/17 12:21:10;;;;;;;3.63;1.08;;;12.10;99.90;;;;;;5073977;28;20465;-75
2022/11/17 12:24:16;;;;;;;4.88;1.00;;;12.20;99.90;;;;;;5073133;28;20554;-75
2022/11/17 12:26:43;;;;;;;5.60;1.15;;;12.20;99.90;;;;;;5073408;28;20060;-75
2022/11/17 12:29:27;;;;;;;5.68;1.23;;;12.30;99.90;;;;;;5073691;28;20020;-75
2022/11/17 12:31:59;;;;;;;3.17;1.00;;;12.40;99.90;;;;;;5072693;28;20469;-75
2022/11/17 12:34:35;;;;;;;5.40;0.90;;;12.50;99.90;;;;;;5073417;28;20035;-75
2022/11/17 12:37:17;;;;;;;6.90;1.10;;;12.50;99.90;;;;;;5065299;28;20082;-75
2022/11/17 12:40:01;;;;;;;3.80;0.63;;;12.60;99.90;;;;;;5073828;28;20024;-76
2022/11/17 12:42:34;;;;;;;4.68;0.95;;;12.50;99.90;;;;;;5073759;28;20119;-75
2022/11/17 12:45:05;;;;;;;2.03;0.80;;;12.60;99.90;;;;;;5073760;28;20032;-75
2022/11/17 12:47:40;;;;;;;2.83;0.90;;;12.80;99.90;;;;;;5073876;28;20024;-75
2022/11/17 12:50:39;;;;;;;5.85;1.20;;;13.00;99.90;;;;;;5073572;28;20043;-75
2022/11/17 12:53:23;;;;;;;1.33;0.60;;;13.30;99.90;;;;;;5073911;28;20043;-75
2022/11/17 12:56:07;;;;;;;3.67;0.88;;;13.30;99.90;;;;;;5073295;28;20047;-74
2022/11/17 12:58:53;;;;;;;6.25;1.05;;;13.70;99.90;;;;;;5072337;28;20358;-75
2022/11/17 13:01:27;;;;;;;5.13;0.80;;;13.50;99.90;;;;;;5068307;28;20037;-75
2022/11/17 13:04:04;;;;;;;4.60;0.93;;;13.20;99.90;;;;;;5073273;28;20029;-74
2022/11/17 13:06:30;;;;;;;3.13;0.85;;;12.90;99.90;;;;;;5039572;28;20119;-75
2022/11/17 13:09:00;;;;;;;3.88;0.80;;;12.70;99.90;;;;;;5065357;28;20115;-76
2022/11/17 13:11:28;;;;;;;7.22;1.00;;;12.70;99.90;;;;;;5071881;28;20036;-74
2022/11/17 13:14:14;;;;;;;1.65;0.60;;;12.60;99.90;;;;;;5073574;28;20480;-73
2022/11/17 13:16:48;;;;;;;4.13;0.98;;;12.60;99.90;;;;;;5073427;28;20061;-74
2022/11/17 13:19:36;;;;;;;7.28;1.60;;;12.70;99.90;;;;;;5073977;28;20422;-73
2022/11/17 13:22:02;;;;;;;3.78;1.30;;;12.70;99.90;;;;;;5072119;28;20040;-74
2022/11/17 13:24:30;;;;;;;7.40;1.35;;;12.70;99.90;;;;;;5073181;28;20028;-74
2022/11/17 13:26:59;;;;;;;6.55;1.10;;;12.60;99.90;;;;;;5054962;28;20068;-74
2022/11/17 13:29:24;;;;;;;8.40;0.98;;;12.60;99.90;;;;;;5073066;28;20028;-74
2022/11/17 13:32:14;;;;;;;3.30;1.23;;;12.60;99.90;;;;;;5072899;28;20027;-74
2022/11/17 13:34:50;;;;;;;5.63;1.17;;;12.60;99.90;;;;;;5072798;28;20037;-74